Reliance, Texas
Current Conditions -  °F | °C
As of 5:53 AM on Monday 26 Jan 2015 (Local Time) from KCLL Reporting Station
Clear Clear  
Wind Chill: 42°   Ceiling: Unl
Heat Index: 44°   Visibility: 10mi
Dew Point: 29°   Wind: 5mph
Humidity: 55%   Direction: 340°NNW
Pressure: 30.2"   Gusts: NA
Location:  30.6361°N, 96.3666°W
Report Text: KCLL 261153Z AUTO 34004KT 10SM CLR 07/M02 A3020 RMK AO2 SLP226 T00671017 10122 20050 53004
Loading
Personal Weather Stations






























Interactive Weather Map New forecast layout! Learn more

10-Day Weather Forecast

Advertisements
Track Severe Weather on mobile